CheckWX is a tool to help pilots better visualize weather data.  It is not intended as a substitute for an official pre-flight weather briefing.

10:10:34 UTC

SKCL TAF
Alfonso Bonilla Aragon International Airport
Cali, Colombia
TAF SKCL 220430Z 2206/2306 03004KT 9999 SCT030 SCT100 TEMPO 2208/2213 3000 BR SCT008 BECMG 2218/2219 33012KT TEMPO 2300/2302 DZRA SCT017 TX29/2219Z TN18/2211Z

Sep-22@
06:00 UTC

Sep-22 @ 06:00 UTC

Sep-22@
18:00 UTC

Sep-22 @ 18:00 UTC

TAF SKCL 220430Z 2206/2306 03004KT 9999 SCT030 SCT100
Wind
  • 030° at 4 KTS
Cloud Levels
  • Scattered at 3,000' AGL
  • Scattered at 10,000' AGL

Sep-22@
08:00 UTC

Sep-22 @ 08:00 UTC

Sep-22@
13:00 UTC

Sep-22 @ 13:00 UTC

TEMPO 2208/2213 3000 BR SCT008

Temporary

Temporary Changes expected for less than half the time period

Conditions
Mist
Cloud Levels
  • Scattered at 800' AGL

Sep-22@
18:00 UTC

Sep-22 @ 18:00 UTC

Sep-23@
06:00 UTC

Sep-23 @ 06:00 UTC

BECMG 2218/2219 33012KT

Becoming

Becoming Conditions expected by Sun, Sep 22, 2019 @ 19:00 UTC

Wind
  • 330° at 12 KTS
Cloud Levels
  • Scattered at 3,000' AGL
  • Scattered at 10,000' AGL

Sep-23@
00:00 UTC

Sep-23 @ 00:00 UTC

Sep-23@
02:00 UTC

Sep-23 @ 02:00 UTC

TEMPO 2300/2302 DZRA SCT017 TX29/2219Z TN18/2211Z

Temporary

Temporary Changes expected for less than half the time period

Conditions
Drizzle, Rain
Cloud Levels
  • Scattered at 1,700' AGL